Tribhuvan International Airport
VNKT : now visible

Airfield :











YOU CAN JOIN US ON...

 
LOGIN :

Register | Disclaimer

   EN    FR    IT 

 









Legend :    VFR   Marginal VFR   IFR   Intensive IFR   Very Intensive IFR
Visi :
Ceiling :
>= 8 km
>= 3000ft
5 to 8 km
1000 to 3000 ft
1500m to 5 km
500 to 1000 ft
800 to 1500m
200 to 500 ft
< 800m
< 200 ft
Symbols :   Thunderstorms  Fog  Heavy snow  Heavy precipitations  Wind > 20 kt






- Airport Elevation : 4390 ft
- IATA code : KTM


VNKT - Tribhuvan International

CURRENT METAR :
  • 250530Z 02003KT 7000 FEW015 SCT030 BKN100 29/20 Q1009 NOSIG

EXPIRED METARs :
  • 250500Z 21005KT 160V300 7000 FEW015 SCT030 BKN100 28/20 Q1009 NOSIG
  • 250430Z 28004KT 7000 FEW015 SCT030 BKN100 28/19 Q1010 NOSIG
  • 250400Z 27003KT 7000 FEW015 SCT030 27/21 Q1010 NOSIG
  • 250330Z VRB02KT 6000 FEW015 SCT030 27/21 Q1010 NOSIG
  • 250300Z VRB02KT 6000 FEW015 SCT030 26/20 Q1010 NOSIG
  • 250230Z VRB02KT 6000 FEW015 SCT030 BKN100 26/21 Q1010 NOSIG
  • 250200Z VRB02KT 6000 FEW015 SCT030 BKN100 25/21 Q1010 NOSIG
  • 250130Z 00000KT 6000 FEW015 SCT030 BKN100 25/21 Q1010 NOSIG
  • 250100Z VRB02KT 6000 FEW015 SCT030 BKN100 24/21 Q1010 NOSIG
  • 250030Z 16003KT 6000 FEW015 SCT030 23/20 Q1009 NOSIG

TAF TAF VNKT
Valid from the 25 at 00:00 until the 26 at 00:00 UTC


242300Z 2500/2524 18003KT 7000 FEW015 SCT030 BKN100
BECMG 2503/2505 17004KT 8000 FEW015 SCT030 BKN100
BECMG 2507/2508 20010KT 9000 FEW020 SCT030 BKN100
PROB40 2508/2513 22012KT 4000 -TSRA FEW025CB
BECMG 2514/2515 16004KT 8000 FEW015 SCT030 BKN100
PROB30 2519/2523 22006KT 4000 -TSRA/RA FEW025CB
VNSM FIR / Asia



MET'MAP, your aeronautical weather chart ! - Copyright ORBIFLY December 2007 - Disclaimer

ORBIFLY MET'MAP TEAM :

Programming & Development : Alexandra Zaïnal
Original concept : Baudouin d'Aumeries
Technical & hardware support : Manuel Goepfert
Assistance : Marc-Olivier Méhu




SOURCES & CREDITS :

   NOAA       Earth
Advisory